RJTQ(METAR)
03/23 15:00
RJTQ 230600Z 28007KT 9999 FEW035 BKNXXX 13/04 Q1014 RMK A2995=
戻る
トップページへ戻る
IMOC Co,.Ltd.